weather.gov     
National Weather Service

Terminal Aerodrome Forecast
NWS Homepage
This page is being discontinued on March 12, 2014.
The same data is available at this site. Please update your bookmarks.
Thank you, and we apologize for the inconvenience.
Please send an email to SR-SRH.Webmaster@noaa.gov with any concerns.


Current Version
Previous Version:    01  02  03  04  05  06  07  08  09  10  11  12  13  14  15  16  17  18  19  20  21  22  23  24  25  26  27  28  29  30  
   31  32  33  34  35  
[Printable]
727
FTUS45 KSLC 302333
TAFOGD
TAF
KOGD 302333Z 0100/0124 32007KT P6SM VCTS SCT050CB BKN080
      TEMPO 0100/0102 -SHRA BKN050
     FM010200 32008KT P6SM VCSH SCT040 BKN060
     FM010600 VRB05KT P6SM SCT040 BKN060
     FM011800 32008KT P6SM SCT060 SCT090=




727
FTUS45 KSLC 302333
TAFOGD
TAF
KOGD 302333Z 0100/0124 32007KT P6SM VCTS SCT050CB BKN080
      TEMPO 0100/0102 -SHRA BKN050
     FM010200 32008KT P6SM VCSH SCT040 BKN060
     FM010600 VRB05KT P6SM SCT040 BKN060
     FM011800 32008KT P6SM SCT060 SCT090=


U.S. Dept. of Commerce
NOAA National Weather Service
1325 East West Highway
Silver Spring, MD 20910
E-mail: w-nws.webmaster@noaa.gov
Page last modified: May 16, 2007
NATIONAL WEATHER SERVICE: for Safety, for Work, for Fun - FOR LIFE